Time;durP1;ratioP1;P1;durP2;ratioP2;P2;SDS_P1;SDS_P2;PMS_P1;PMS_P2;Temp;Humidity;BMP_temperature;BMP_pressure;BME280_temperature;BME280_humidity;BME280_pressure;Samples;Min_cycle;Max_cycle;Signal;HPM_P1;HPM_P2
2022/01/12 00:00:41;;;;;;;;;;;;;;;-2.57;100.00;101455.31;5013874;28;19922;-78
2022/01/12 00:03:10;;;;;;;;;;;;;;;-2.59;100.00;101457.84;5013709;28;19921;-79
2022/01/12 00:05:36;;;;;;;;;;;;;;;-2.57;100.00;101455.31;5013798;28;20407;-78
2022/01/12 00:08:05;;;;;;;;;;;;;;;-2.56;100.00;101452.78;5013854;28;19948;-78
2022/01/12 00:10:31;;;;;;;;;;;;;;;-2.52;100.00;101443.47;5013790;28;19921;-78
2022/01/12 00:12:58;;;;;;;;;;;;;;;-2.52;100.00;101430.72;5012843;28;19921;-77
2022/01/12 00:15:24;;;;;;;;;;;;;;;-2.53;100.00;101418.84;5013764;28;19928;-78
2022/01/12 00:17:51;;;;;;;;;;;;;;;-2.52;100.00;101425.63;5013528;28;19921;-78
2022/01/12 00:20:18;;;;;;;;;;;;;;;-2.52;100.00;101431.56;5013402;28;19932;-76
2022/01/12 00:22:44;;;;;;;;;;;;;;;-2.52;100.00;101435.81;5013471;28;20376;-76
2022/01/12 00:25:26;;;;;;;;;;;;;;;-2.51;100.00;101446.03;5013511;28;19922;-78
2022/01/12 00:33:22;;;;;;;;;;;;;;;-2.43;100.00;101458.88;5013279;28;19928;-76
2022/01/12 00:35:49;;;;;;;;;;;;;;;-2.39;100.00;101455.47;5013308;28;19960;-70
2022/01/12 00:38:17;;;;;;;;;;;;;;;-2.36;100.00;101449.56;5013213;28;19921;-71
2022/01/12 00:40:47;;;;;;;;;;;;;;;-2.34;100.00;101453.00;5013246;28;20331;-68
2022/01/12 00:43:14;;;;;;;;;;;;;;;-2.30;100.00;101452.19;5013409;28;19959;-64
2022/01/12 00:45:42;;;;;;;;;;;;;;;-2.30;100.00;101455.59;5013376;28;19922;-64
2022/01/12 00:48:10;;;;;;;;;;;;;;;-2.26;100.00;101443.72;5012911;28;19928;-75
2022/01/12 00:50:37;;;;;;;;;;;;;;;-2.26;100.00;101438.59;5013230;28;19921;-69
2022/01/12 00:53:04;;;;;;;;;;;;;;;-2.21;100.00;101445.47;5012752;28;20402;-75
2022/01/12 00:55:31;;;;;;;;;;;;;;;-2.18;100.00;101439.56;5012916;28;19952;-77
2022/01/12 00:57:59;;;;;;;;;;;;;;;-2.17;100.00;101441.25;5012928;28;19929;-77
2022/01/12 01:00:27;;;;;;;;;;;;;;;-2.13;100.00;101439.56;5013174;28;19928;-69
2022/01/12 01:02:54;;;;;;;;;;;;;;;-2.08;100.00;101440.47;5012925;28;19929;-76
2022/01/12 01:05:22;;;;;;;;;;;;;;;-2.06;100.00;101444.72;5012852;28;19976;-77
2022/01/12 01:07:48;;;;;;;;;;;;;;;-2.01;100.00;101427.75;5012963;28;20024;-78
2022/01/12 01:10:23;;;;;;;;;;;;;;;-1.99;100.00;101423.53;5012916;28;19928;-77
2022/01/12 01:12:49;;;;;;;;;;;;;;;-1.96;100.00;101430.34;5014289;28;19921;-75
2022/01/12 01:15:26;;;;;;;;;;;;;;;-1.91;100.00;101443.16;5012986;28;20360;-78
2022/01/12 01:26:05;;;;;;;;;;;;;;;-1.75;100.00;101429.66;5016831;28;19928;-78
2022/01/12 01:28:31;;;;;;;;;;;;;;;-1.73;100.00;101417.75;5016630;28;19922;-78
2022/01/12 01:30:59;;;;;;;;;;;;;;;-1.73;100.00;101406.72;5016727;28;19928;-71
2022/01/12 01:33:27;;;;;;;;;;;;;;;-1.73;100.00;101407.56;5016871;28;19921;-78
2022/01/12 01:35:56;;;;;;;;;;;;;;;-1.73;100.00;101416.91;5016882;28;19922;-78
2022/01/12 01:38:22;;;;;;;;;;;;;;;-1.70;100.00;101410.13;5016678;28;19925;-78
2022/01/12 01:40:49;;;;;;;;;;;;;;;-1.69;100.00;101416.94;5016373;28;20391;-75
2022/01/12 01:43:23;;;;;;;;;;;;;;;-1.67;100.00;101416.94;5016172;28;19921;-78
2022/01/12 01:54:04;;;;;;;;;;;;;;;-1.49;100.00;101400.88;5016048;28;19983;-77
2022/01/12 01:56:30;;;;;;;;;;;;;;;-1.49;100.00;101411.97;5016110;28;19921;-76
2022/01/12 01:58:57;;;;;;;;;;;;;;;-1.45;100.00;101417.91;5016215;28;19928;-78
2022/01/12 02:01:24;;;;;;;;;;;;;;;-1.44;100.00;101417.06;5016021;28;19997;-77
2022/01/12 02:03:58;;;;;;;;;;;;;;;-1.48;100.00;101420.47;5015801;28;20341;-69
2022/01/12 02:06:25;;;;;;;;;;;;;;;-1.45;100.00;101418.78;5016091;28;19943;-77
2022/01/12 02:08:54;;;;;;;;;;;;;;;-1.46;100.00;101406.88;5016165;28;19921;-78
2022/01/12 02:11:24;;;;;;;;;;;;;;;-1.46;100.00;101400.91;5016216;28;19930;-77
2022/01/12 02:13:51;;;;;;;;;;;;;;;-1.46;100.00;101411.13;5015582;28;20383;-71
2022/01/12 02:16:22;;;;;;;;;;;;;;;-1.47;100.00;101388.97;5015825;28;20402;-78
2022/01/12 02:19:08;;;;;;;;;;;;;;;-1.46;100.00;101393.25;5015724;28;19967;-76
2022/01/12 02:35:35;;;;;;;;;;;;;;;-1.41;100.00;101394.13;5034485;28;19928;-74
2022/01/12 02:40:51;;;;;;;;;;;;;;;-1.42;100.00;101372.81;5035705;28;19930;-74
2022/01/12 02:43:29;;;;;;;;;;;;;;;-1.40;100.00;101367.75;5034835;28;19925;-75
2022/01/12 02:51:31;;;;;;;;;;;;;;;-1.35;100.00;101366.91;5035009;28;19970;-75
2022/01/12 02:53:59;;;;;;;;;;;;;;;-1.33;100.00;101372.03;5034765;28;19967;-76
2022/01/12 02:56:27;;;;;;;;;;;;;;;-1.33;100.00;101380.53;5035124;28;19921;-75
2022/01/12 02:58:56;;;;;;;;;;;;;;;-1.32;100.00;101371.16;5034869;28;19977;-75
2022/01/12 03:04:10;;;;;;;;;;;;;;;-1.27;100.00;101364.38;5035181;28;20351;-76
2022/01/12 03:06:39;;;;;;;;;;;;;;;-1.28;100.00;101364.38;5034462;28;19967;-75
2022/01/12 03:09:08;;;;;;;;;;;;;;;-1.26;100.00;101370.34;5034404;28;20000;-76
2022/01/12 03:11:35;;;;;;;;;;;;;;;-1.27;100.00;101368.66;5034293;28;19928;-76
2022/01/12 03:14:01;;;;;;;;;;;;;;;-1.26;100.00;101358.41;5034863;28;19921;-77
2022/01/12 03:16:29;;;;;;;;;;;;;;;-1.24;100.00;101355.88;5034652;28;19927;-77
2022/01/12 03:18:56;;;;;;;;;;;;;;;-1.22;100.00;101365.25;5034704;28;19921;-77
2022/01/12 03:21:24;;;;;;;;;;;;;;;-1.20;100.00;101363.56;5034444;28;20276;-77
2022/01/12 03:23:51;;;;;;;;;;;;;;;-1.18;100.00;101358.44;5034690;28;20402;-75
2022/01/12 03:26:20;;;;;;;;;;;;;;;-1.19;100.00;101352.50;5034227;28;20331;-77
2022/01/12 03:28:52;;;;;;;;;;;;;;;-1.19;100.00;101351.63;5034406;28;19932;-78
2022/01/12 03:31:21;;;;;;;;;;;;;;;-1.17;100.00;101340.59;5034362;28;19927;-77
2022/01/12 03:33:55;;;;;;;;;;;;;;;-1.15;100.00;101331.22;5034113;28;20368;-77
2022/01/12 03:36:28;;;;;;;;;;;;;;;-1.16;100.00;101343.97;5034368;28;19921;-77
2022/01/12 03:38:56;;;;;;;;;;;;;;;-1.13;100.00;101338.88;5034261;28;19952;-77
2022/01/12 03:41:24;;;;;;;;;;;;;;;-1.14;100.00;101348.25;5034237;28;19921;-77
2022/01/12 03:43:50;;;;;;;;;;;;;;;-1.13;100.00;101339.75;5033777;28;19932;-77
2022/01/12 03:46:18;;;;;;;;;;;;;;;-1.12;100.00;101338.91;5033696;28;20402;-76
2022/01/12 03:48:45;;;;;;;;;;;;;;;-1.11;100.00;101344.84;5033746;28;19951;-76
2022/01/12 03:51:11;;;;;;;;;;;;;;;-1.11;100.00;101330.38;5033758;28;19921;-77
2022/01/12 03:53:38;;;;;;;;;;;;;;;-1.11;100.00;101335.47;5033863;28;19920;-77
2022/01/12 03:56:04;;;;;;;;;;;;;;;-1.10;100.00;101329.53;5034070;28;19928;-77
2022/01/12 03:58:33;;;;;;;;;;;;;;;-1.10;100.00;101328.69;5033864;28;19921;-77
2022/01/12 04:00:59;;;;;;;;;;;;;;;-1.10;100.00;101323.59;5033557;28;19921;-77
2022/01/12 04:03:28;;;;;;;;;;;;;;;-1.12;100.00;101315.06;5033524;28;20395;-77
2022/01/12 04:08:38;;;;;;;;;;;;;;;-1.11;100.00;101314.19;5033421;28;19928;-77
2022/01/12 04:11:05;;;;;;;;;;;;;;;-1.13;100.00;101310.78;5033525;28;20006;-76
2022/01/12 04:13:33;;;;;;;;;;;;;;;-1.12;100.00;101309.97;5033007;28;19924;-76
2022/01/12 04:16:01;;;;;;;;;;;;;;;-1.13;100.00;101306.56;5033469;28;19928;-76
2022/01/12 04:18:27;;;;;;;;;;;;;;;-1.11;100.00;101306.53;5033718;28;19921;-76
2022/01/12 04:20:54;;;;;;;;;;;;;;;-1.11;100.00;101304.00;5033297;28;20376;-77
2022/01/12 04:23:22;;;;;;;;;;;;;;;-1.13;100.00;101305.69;5033433;28;20004;-76
2022/01/12 04:25:49;;;;;;;;;;;;;;;-1.14;100.00;101304.00;5033122;28;19928;-77
2022/01/12 04:28:17;;;;;;;;;;;;;;;-1.15;100.00;101305.69;5033073;28;19921;-77
2022/01/12 04:30:46;;;;;;;;;;;;;;;-1.16;100.00;101286.09;5033208;28;19928;-77
2022/01/12 04:33:12;;;;;;;;;;;;;;;-1.17;100.00;101298.88;5033169;28;19928;-77
2022/01/12 04:35:46;;;;;;;;;;;;;;;-1.18;100.00;101285.25;5033231;28;19928;-77
2022/01/12 04:38:13;;;;;;;;;;;;;;;-1.18;100.00;101292.94;5033336;28;20368;-77
2022/01/12 04:40:40;;;;;;;;;;;;;;;-1.18;100.00;101295.47;5032812;28;19921;-77
2022/01/12 05:09:47;;;;;;;;;;;;;;;-1.09;100.00;101238.44;5012946;28;19921;-77
2022/01/12 05:14:44;;;;;;;;;;;;;;;-1.10;100.00;101198.44;5198247;22;19944;-77
2022/01/12 05:17:11;;;;;;;;;;;;;;;-1.04;100.00;101201.00;5013071;28;20360;-77
2022/01/12 05:19:39;;;;;;;;;;;;;;;-1.02;100.00;101201.00;5012971;28;19921;-77
2022/01/12 05:22:05;;;;;;;;;;;;;;;-1.01;100.00;101190.75;5012821;28;19921;-76
2022/01/12 05:24:32;;;;;;;;;;;;;;;-1.01;100.00;101184.81;5013407;28;20475;-77
2022/01/12 05:26:59;;;;;;;;;;;;;;;-0.99;100.00;101186.50;5012999;28;19921;-76
2022/01/12 05:29:26;;;;;;;;;;;;;;;-0.99;100.00;101186.50;5012555;28;19925;-77
2022/01/12 05:31:52;;;;;;;;;;;;;;;-0.98;100.00;101179.69;5012538;28;20399;-77
2022/01/12 05:34:20;;;;;;;;;;;;;;;-0.96;100.00;101183.94;5019734;22;19925;-77
2022/01/12 05:36:48;;;;;;;;;;;;;;;-0.93;100.00;101175.44;5012417;28;20388;-77
2022/01/12 05:39:15;;;;;;;;;;;;;;;-0.93;100.00;101181.38;5012571;28;19929;-78
2022/01/12 05:41:41;;;;;;;;;;;;;;;-0.94;100.00;101163.53;5012536;28;19921;-77
2022/01/12 05:44:09;;;;;;;;;;;;;;;-1.00;100.00;101166.94;5012190;28;20382;-76
2022/01/12 05:46:37;;;;;;;;;;;;;;;-0.93;100.00;101165.22;5012427;28;20024;-77
2022/01/12 06:07:19;;;;;;;;;;;;;;;-0.92;100.00;101129.47;5122137;22;19921;-76
2022/01/12 06:09:46;;;;;;;;;;;;;;;-0.89;100.00;101126.06;5012236;28;19929;-78
2022/01/12 06:12:13;;;;;;;;;;;;;;;-0.90;100.00;101121.78;5015650;28;19959;-76
2022/01/12 06:14:40;;;;;;;;;;;;;;;-0.92;100.00;101116.69;4995962;28;19922;-77
2022/01/12 06:17:07;;;;;;;;;;;;;;;-0.93;100.00;101109.84;4996230;28;19922;-76
2022/01/12 06:19:33;;;;;;;;;;;;;;;-0.91;100.00;101114.97;4995846;28;19929;-75
2022/01/12 06:22:00;;;;;;;;;;;;;;;-0.90;100.00;101111.56;4995881;28;19925;-74
2022/01/12 06:24:28;;;;;;;;;;;;;;;-0.90;100.00;101104.78;4996202;28;19921;-74
2022/01/12 06:26:55;;;;;;;;;;;;;;;-0.90;100.00;101109.88;4995751;28;19926;-74
2022/01/12 06:29:32;;;;;;;;;;;;;;;-0.90;100.00;101106.44;4996075;28;19922;-74
2022/01/12 06:31:58;;;;;;;;;;;;;;;-0.89;100.00;101110.72;4995938;28;19922;-74
2022/01/12 06:34:25;;;;;;;;;;;;;;;-0.88;100.00;101114.97;4995676;28;19928;-74
2022/01/12 06:36:51;;;;;;;;;;;;;;;-0.87;100.00;101096.25;4995511;28;20380;-74
2022/01/12 06:39:20;;;;;;;;;;;;;;;-0.90;100.00;101089.44;4976508;28;19945;-75
2022/01/12 06:41:48;;;;;;;;;;;;;;;-0.88;100.00;101086.88;4975619;28;19922;-75
2022/01/12 06:44:16;;;;;;;;;;;;;;;-0.89;100.00;101075.81;4985398;28;20427;-74
2022/01/12 06:46:44;;;;;;;;;;;;;;;-0.90;100.00;101075.78;4995214;28;19922;-74
2022/01/12 06:49:11;;;;;;;;;;;;;;;-0.89;100.00;101064.75;4995416;28;19921;-75
2022/01/12 06:51:37;;;;;;;;;;;;;;;-0.88;100.00;101063.88;4995612;28;19980;-74
2022/01/12 06:54:04;;;;;;;;;;;;;;;-0.89;100.00;101067.28;5107308;22;19927;-75
2022/01/12 06:56:31;;;;;;;;;;;;;;;-0.88;100.00;101051.09;5155784;22;19975;-74
2022/01/12 06:58:59;;;;;;;;;;;;;;;-0.88;100.00;101057.06;5014435;28;19925;-74
2022/01/12 07:01:26;;;;;;;;;;;;;;;-0.86;100.00;101040.88;5014485;28;20280;-74
2022/01/12 07:03:52;;;;;;;;;;;;;;;-0.88;100.00;101036.63;5014506;28;20276;-73
2022/01/12 07:06:19;;;;;;;;;;;;;;;-0.88;100.00;101040.88;5014523;28;20327;-73
2022/01/12 07:08:45;;;;;;;;;;;;;;;-0.88;100.00;101033.22;5014942;28;19928;-73
2022/01/12 07:11:12;;;;;;;;;;;;;;;-0.84;100.00;101029.81;5014875;28;19921;-73
2022/01/12 07:13:38;;;;;;;;;;;;;;;-0.80;100.00;101025.53;5014401;28;19926;-73
2022/01/12 07:16:07;;;;;;;;;;;;;;;-0.78;100.00;101021.25;5014634;28;20292;-74
2022/01/12 07:18:33;;;;;;;;;;;;;;;-0.80;100.00;101005.94;5014569;28;19921;-73
2022/01/12 07:21:00;;;;;;;;;;;;;;;-0.77;100.00;101015.28;5013950;28;19928;-73
2022/01/12 07:23:27;;;;;;;;;;;;;;;-0.76;100.00;101012.75;5014849;28;19929;-73
2022/01/12 07:25:54;;;;;;;;;;;;;;;-0.77;100.00;101020.41;5014403;28;19921;-73
2022/01/12 07:28:21;;;;;;;;;;;;;;;-0.77;100.00;101007.63;5014092;28;19928;-73
2022/01/12 07:30:48;;;;;;;;;;;;;;;-0.77;100.00;101003.38;5013434;28;19921;-74
2022/01/12 07:33:16;;;;;;;;;;;;;;;-0.77;100.00;100994.84;5015878;28;19921;-74
2022/01/12 07:35:44;;;;;;;;;;;;;;;-0.76;100.00;100992.28;5032414;28;20406;-73
2022/01/12 07:38:13;;;;;;;;;;;;;;;-0.76;100.00;100991.44;5033390;28;20426;-75
2022/01/12 07:40:40;;;;;;;;;;;;;;;-0.75;100.00;100988.88;5030447;28;19925;-74
2022/01/12 07:43:07;;;;;;;;;;;;;;;-0.77;100.00;100979.50;5022363;28;19921;-73
2022/01/12 07:45:34;;;;;;;;;;;;;;;-0.77;100.00;100976.97;5033035;28;19921;-73
2022/01/12 07:48:00;;;;;;;;;;;;;;;-0.75;100.00;100968.44;5031876;28;19920;-73
2022/01/12 07:50:28;;;;;;;;;;;;;;;-0.76;100.00;100959.06;5025751;28;20371;-73
2022/01/12 07:52:57;;;;;;;;;;;;;;;-0.73;100.00;100955.66;5029781;28;19921;-74
2022/01/12 07:55:25;;;;;;;;;;;;;;;-0.74;100.00;100953.97;5032589;28;19928;-74
2022/01/12 07:57:52;;;;;;;;;;;;;;;-0.76;100.00;100932.69;5024606;28;20403;-74
2022/01/12 08:00:20;;;;;;;;;;;;;;;-0.75;100.00;100930.09;5014875;28;19926;-74
2022/01/12 08:02:49;;;;;;;;;;;;;;;-0.76;100.00;100922.47;5018044;28;19921;-71
2022/01/12 08:05:15;;;;;;;;;;;;;;;-0.77;100.00;100911.41;5033201;28;20019;-71
2022/01/12 08:07:44;;;;;;;;;;;;;;;-0.82;99.80;100900.38;5028644;28;19956;-73
2022/01/12 08:10:11;;;;;;;;;;;;;;;-0.83;99.75;100890.13;5029372;28;19921;-72
2022/01/12 08:12:38;;;;;;;;;;;;;;;-0.82;99.85;100890.16;5024245;28;20368;-74
2022/01/12 08:15:06;;;;;;;;;;;;;;;-0.84;99.57;100893.56;5016212;28;19925;-73
2022/01/12 08:17:33;;;;;;;;;;;;;;;-0.81;99.57;100888.44;5013490;28;19932;-74
2022/01/12 08:20:01;;;;;;;;;;;;;;;-0.82;99.71;100863.72;5011837;28;19991;-74
2022/01/12 08:25:02;;;;;;;;;;;;;;;-0.88;100.00;100859.50;5068715;28;19927;-75
2022/01/12 08:27:28;;;;;;;;;;;;;;;-0.90;99.56;100843.34;5071335;28;19920;-75
2022/01/12 08:30:00;;;;;;;;;;;;;;;-0.87;99.67;100845.91;5071233;28;19921;-78
2022/01/12 08:32:27;;;;;;;;;;;;;;;-0.89;99.55;100837.38;5072072;28;19935;-79
2022/01/12 08:34:54;;;;;;;;;;;;;;;-0.91;99.75;100832.28;5050744;28;19995;-72
2022/01/12 08:37:21;;;;;;;;;;;;;;;-0.91;99.22;100827.16;5051690;28;19921;-78
2022/01/12 08:39:48;;;;;;;;;;;;;;;-0.95;99.93;100822.06;5051957;28;19979;-76
2022/01/12 08:42:16;;;;;;;;;;;;;;;-0.93;99.65;100810.16;5052359;28;19928;-79
2022/01/12 08:44:43;;;;;;;;;;;;;;;-0.96;99.42;100803.34;5050981;28;20109;-76
2022/01/12 08:47:10;;;;;;;;;;;;;;;-0.93;99.81;100793.13;5051830;28;19920;-77
2022/01/12 08:49:37;;;;;;;;;;;;;;;-0.93;99.56;100790.56;5052025;28;19925;-70
2022/01/12 08:52:04;;;;;;;;;;;;;;;-0.93;99.21;100795.66;5051614;28;19920;-78
2022/01/12 08:54:31;;;;;;;;;;;;;;;-0.99;99.59;100798.28;5051018;28;19952;-72
2022/01/12 08:56:58;;;;;;;;;;;;;;;-0.97;99.41;100803.38;5051186;28;19979;-77
2022/01/12 08:59:26;;;;;;;;;;;;;;;-0.95;99.91;100776.09;5051712;28;20424;-67
2022/01/12 09:01:53;;;;;;;;;;;;;;;-0.99;99.86;100775.28;5050521;28;19928;-73
2022/01/12 09:04:20;;;;;;;;;;;;;;;-1.00;99.77;100765.94;5050475;28;19970;-74
2022/01/12 09:06:47;;;;;;;;;;;;;;;-0.99;99.81;100759.97;5048057;28;19936;-77
2022/01/12 09:09:14;;;;;;;;;;;;;;;-1.01;99.25;100754.00;5051869;28;20260;-72
2022/01/12 09:11:40;;;;;;;;;;;;;;;-0.99;99.27;100747.19;5048125;28;20374;-73
2022/01/12 09:14:07;;;;;;;;;;;;;;;-1.01;99.46;100740.41;5051467;28;19921;-64
2022/01/12 09:16:35;;;;;;;;;;;;;;;-1.05;99.33;100737.03;5051408;28;19951;-69
2022/01/12 09:19:02;;;;;;;;;;;;;;;-1.03;99.68;100742.13;5051569;28;19974;-74
2022/01/12 09:21:29;;;;;;;;;;;;;;;-1.03;99.38;100742.97;5050424;28;19925;-66
2022/01/12 09:23:56;;;;;;;;;;;;;;;-0.99;99.44;100731.03;5050210;28;19986;-70
2022/01/12 09:26:22;;;;;;;;;;;;;;;-0.98;99.31;100727.59;5051788;28;19920;-66
2022/01/12 09:28:50;;;;;;;;;;;;;;;-1.00;99.83;100732.75;5050592;28;20323;-67
2022/01/12 09:31:17;;;;;;;;;;;;;;;-0.99;99.64;100713.16;5050500;28;19925;-66
2022/01/12 09:33:48;;;;;;;;;;;;;;;-0.97;99.27;100716.56;5051144;28;19967;-67
2022/01/12 09:36:15;;;;;;;;;;;;;;;-0.96;99.19;100702.91;5052408;28;19921;-63
2022/01/12 09:38:41;;;;;;;;;;;;;;;-0.98;99.57;100692.69;5050139;28;19921;-63
2022/01/12 09:41:08;;;;;;;;;;;;;;;-0.98;99.48;100686.75;5044636;28;19920;-63
2022/01/12 09:43:38;;;;;;;;;;;;;;;-0.99;99.39;100670.56;5049742;28;20431;-64
2022/01/12 09:46:04;;;;;;;;;;;;;;;-1.00;99.56;100680.78;5053418;28;20352;-63
2022/01/12 09:48:36;;;;;;;;;;;;;;;-0.99;99.56;100680.78;5054306;28;19955;-66
2022/01/12 09:51:07;;;;;;;;;;;;;;;-0.97;99.63;100680.78;5054268;28;19928;-63
2022/01/12 09:53:34;;;;;;;;;;;;;;;-0.98;99.63;100677.38;5035681;28;19928;-63
2022/01/12 09:56:01;;;;;;;;;;;;;;;-0.98;99.31;100679.09;5048891;28;19967;-65
2022/01/12 09:58:32;;;;;;;;;;;;;;;-0.96;99.57;100673.09;5053848;28;20370;-63
2022/01/12 10:00:59;;;;;;;;;;;;;;;-0.93;99.58;100687.53;5053579;28;19943;-68
2022/01/12 10:03:27;;;;;;;;;;;;;;;-0.92;99.56;100679.88;5055270;28;20360;-64
2022/01/12 10:05:54;;;;;;;;;;;;;;;-0.92;99.25;100679.03;5053295;28;19921;-69
2022/01/12 10:08:22;;;;;;;;;;;;;;;-0.90;99.32;100677.28;5054456;28;19921;-65
2022/01/12 10:11:01;;;;;;;;;;;;;;;-0.90;99.24;100677.28;5054792;28;19925;-65
2022/01/12 10:13:27;;;;;;;;;;;;;;;-0.90;99.25;100675.63;5053970;28;19927;-64
2022/01/12 10:15:55;;;;;;;;;;;;;;;-0.87;98.73;100651.75;5053646;28;19960;-71
2022/01/12 10:18:22;;;;;;;;;;;;;;;-0.87;98.66;100638.97;5053921;28;19924;-72
2022/01/12 10:20:50;;;;;;;;;;;;;;;-0.84;99.15;100628.72;5055331;28;20008;-65
2022/01/12 10:23:19;;;;;;;;;;;;;;;-0.84;98.78;100626.16;5056012;22;20372;-72
2022/01/12 10:25:47;;;;;;;;;;;;;;;-0.83;99.23;100622.75;5013265;28;19921;-73
2022/01/12 10:28:16;;;;;;;;;;;;;;;-0.82;99.13;100628.69;5014101;28;19975;-73
2022/01/12 10:30:51;;;;;;;;;;;;;;;-0.76;98.53;100620.97;5014273;28;19961;-72
2022/01/12 10:33:18;;;;;;;;;;;;;;;-0.76;98.48;100603.09;5013032;28;20319;-73
2022/01/12 10:35:45;;;;;;;;;;;;;;;-0.76;98.41;100610.75;5014066;28;19921;-72
2022/01/12 10:38:13;;;;;;;;;;;;;;;-0.75;98.56;100613.28;5014697;28;20040;-73
2022/01/12 10:40:48;;;;;;;;;;;;;;;-0.74;98.28;100601.38;5019202;28;19975;-73
2022/01/12 10:43:27;;;;;;;;;;;;;;;-0.78;98.51;100575.00;5020338;28;19922;-72
2022/01/12 10:45:54;;;;;;;;;;;;;;;-0.79;98.06;100575.88;5013339;28;20355;-73
2022/01/12 10:48:23;;;;;;;;;;;;;;;-0.79;98.55;100559.72;5015257;28;19972;-73
2022/01/12 10:50:57;;;;;;;;;;;;;;;-0.83;98.40;100537.59;5012981;28;19921;-73
2022/01/12 10:53:28;;;;;;;;;;;;;;;-0.85;98.83;100534.22;5021041;22;19960;-73
2022/01/12 10:56:05;;;;;;;;;;;;;;;-0.85;97.97;100526.53;5013858;28;19952;-74
2022/01/12 10:58:31;;;;;;;;;;;;;;;-0.85;98.04;100516.34;5013949;28;19961;-73
2022/01/12 11:00:58;;;;;;;;;;;;;;;-0.85;97.69;100516.34;5013275;28;19921;-74
2022/01/12 11:03:25;;;;;;;;;;;;;;;-0.88;97.99;100512.94;5033455;22;20007;-74
2022/01/12 11:05:54;;;;;;;;;;;;;;;-0.86;98.17;100515.50;5071110;28;19924;-73
2022/01/12 11:08:22;;;;;;;;;;;;;;;-0.85;98.21;100499.28;5066200;28;19921;-73
2022/01/12 11:10:49;;;;;;;;;;;;;;;-0.82;97.64;100490.75;5071999;28;19962;-74
2022/01/12 11:13:17;;;;;;;;;;;;;;;-0.83;97.97;100489.06;5105067;22;19985;-73
2022/01/12 11:15:44;;;;;;;;;;;;;;;-0.84;98.28;100475.44;4995025;28;19922;-73
2022/01/12 11:18:11;;;;;;;;;;;;;;;-0.83;97.69;100478.84;5002337;28;20369;-74
2022/01/12 11:20:40;;;;;;;;;;;;;;;-0.82;97.69;100467.75;5003957;28;19993;-73
2022/01/12 11:23:08;;;;;;;;;;;;;;;-0.83;97.86;100466.91;5015983;23;19975;-79
2022/01/12 11:25:35;;;;;;;;;;;;;;;-0.85;97.57;100460.97;5033256;28;19921;-79
2022/01/12 11:28:10;;;;;;;;;;;;;;;-0.84;98.17;100472.91;5030269;28;19921;-76
2022/01/12 11:30:38;;;;;;;;;;;;;;;-0.82;97.91;100477.97;5029173;28;19956;-75
2022/01/12 11:33:06;;;;;;;;;;;;;;;-0.81;97.76;100492.44;5032379;28;19925;-72
2022/01/12 11:35:34;;;;;;;;;;;;;;;-0.83;97.79;100479.69;5034043;28;19960;-68
2022/01/12 11:38:01;;;;;;;;;;;;;;;-0.82;97.65;100483.06;5027749;28;19921;-79
2022/01/12 11:40:35;;;;;;;;;;;;;;;-0.81;97.79;100472.84;5029205;28;19921;-77
2022/01/12 11:43:02;;;;;;;;;;;;;;;-0.84;97.80;100466.94;5025874;28;19952;-77
2022/01/12 11:45:29;;;;;;;;;;;;;;;-0.84;97.98;100469.50;5013181;28;20261;-79
2022/01/12 11:47:57;;;;;;;;;;;;;;;-0.85;97.82;100440.53;5030816;28;19975;-78
2022/01/12 11:50:24;;;;;;;;;;;;;;;-0.85;97.92;100439.69;5033067;28;19967;-77
2022/01/12 11:52:51;;;;;;;;;;;;;;;-0.85;97.97;100401.38;5032613;28;20363;-66
2022/01/12 11:55:20;;;;;;;;;;;;;;;-0.85;97.59;100404.78;5031956;28;19925;-74
2022/01/12 11:57:48;;;;;;;;;;;;;;;-0.84;98.05;100408.19;5014535;28;19928;-63
2022/01/12 12:00:16;;;;;;;;;;;;;;;-0.86;97.97;100392.03;5028938;28;19925;-62
2022/01/12 12:02:43;;;;;;;;;;;;;;;-0.86;97.75;100380.09;5033052;28;19921;-76
2022/01/12 12:05:12;;;;;;;;;;;;;;;-0.84;97.94;100357.09;5031644;28;19925;-71
2022/01/12 12:07:46;;;;;;;;;;;;;;;-0.87;97.32;100363.09;5031343;28;19929;-64
2022/01/12 12:10:14;;;;;;;;;;;;;;;-0.86;97.30;100369.91;5022734;28;19963;-68
2022/01/12 12:12:41;;;;;;;;;;;;;;;-0.87;97.64;100352.91;5012923;28;19928;-65
2022/01/12 12:15:09;;;;;;;;;;;;;;;-0.86;96.99;100326.47;5026374;28;19975;-64
2022/01/12 12:17:37;;;;;;;;;;;;;;;-0.89;97.34;100312.03;5032539;28;20287;-70
2022/01/12 12:20:05;;;;;;;;;;;;;;;-0.88;97.25;100308.59;5032547;28;19924;-65
2022/01/12 12:22:38;;;;;;;;;;;;;;;-0.86;96.99;100310.31;5032168;28;19921;-71
2022/01/12 12:25:06;;;;;;;;;;;;;;;-0.86;97.10;100311.13;5011756;28;19929;-65
2022/01/12 12:27:34;;;;;;;;;;;;;;;-0.85;96.82;100310.25;5030443;28;20371;-64
2022/01/12 12:30:01;;;;;;;;;;;;;;;-0.85;97.35;100286.44;5033030;28;19921;-65
2022/01/12 12:32:36;;;;;;;;;;;;;;;-0.84;96.26;100258.31;5031305;28;19961;-71
2022/01/12 12:35:04;;;;;;;;;;;;;;;-0.81;96.33;100240.41;5030953;28;19921;-76
2022/01/12 12:37:36;;;;;;;;;;;;;;;-0.80;96.06;100229.28;5031666;28;19952;-75
2022/01/12 12:40:12;;;;;;;;;;;;;;;-0.85;97.36;100225.97;5032132;28;19937;-68
2022/01/12 12:42:39;;;;;;;;;;;;;;;-0.92;97.13;100206.53;5025625;28;19921;-65
2022/01/12 12:45:08;;;;;;;;;;;;;;;-0.97;98.06;100203.22;5029976;28;19925;-64
2022/01/12 12:47:35;;;;;;;;;;;;;;;-0.99;98.00;100194.72;5032761;28;19927;-66
2022/01/12 12:50:03;;;;;;;;;;;;;;;-1.00;97.59;100185.38;5031214;28;19921;-65
2022/01/12 12:52:31;;;;;;;;;;;;;;;-0.99;97.54;100176.84;5031144;28;19983;-66
2022/01/12 12:55:00;;;;;;;;;;;;;;;-0.99;97.05;100162.38;5017377;28;19929;-64
2022/01/12 12:57:28;;;;;;;;;;;;;;;-0.98;97.37;100142.78;5012664;28;19921;-65
2022/01/12 13:00:06;;;;;;;;;;;;;;;-0.97;96.84;100152.13;5026265;28;19952;-64
2022/01/12 13:02:35;;;;;;;;;;;;;;;-0.98;96.98;100158.94;5031800;28;20417;-64
2022/01/12 13:05:03;;;;;;;;;;;;;;;-0.96;96.98;100169.13;5031894;28;19953;-65
2022/01/12 13:07:35;;;;;;;;;;;;;;;-0.92;96.40;100160.56;5031126;28;19921;-63
2022/01/12 13:10:05;;;;;;;;;;;;;;;-0.92;96.36;100156.28;5031356;28;20257;-66
2022/01/12 13:12:36;;;;;;;;;;;;;;;-0.91;96.35;100141.81;5018015;28;19964;-69
2022/01/12 13:15:03;;;;;;;;;;;;;;;-0.90;96.54;100120.50;5032470;28;19928;-65
2022/01/12 13:17:29;;;;;;;;;;;;;;;-0.93;96.36;100116.28;5030362;28;20342;-76
2022/01/12 13:22:44;;;;;;;;;;;;;;;-0.87;96.24;100125.56;5035354;28;19943;-65
2022/01/12 13:25:15;;;;;;;;;;;;;;;-0.85;95.85;100120.41;5035247;28;19952;-74
2022/01/12 13:27:42;;;;;;;;;;;;;;;-0.85;96.06;100125.53;5035037;28;19925;-65
2022/01/12 13:30:10;;;;;;;;;;;;;;;-0.85;96.21;100118.69;5035268;28;19975;-64
2022/01/12 13:32:37;;;;;;;;;;;;;;;-0.84;96.27;100122.94;5036087;28;19971;-64
2022/01/12 13:35:05;;;;;;;;;;;;;;;-0.85;95.81;100112.75;5034271;28;19979;-64
2022/01/12 13:37:32;;;;;;;;;;;;;;;-0.86;95.73;100086.38;5034467;28;19921;-64
2022/01/12 13:40:07;;;;;;;;;;;;;;;-0.83;95.34;100080.38;5035260;28;19921;-65
2022/01/12 13:42:45;;;;;;;;;;;;;;;-0.84;95.68;100071.88;5035509;28;19927;-64
2022/01/12 13:45:15;;;;;;;;;;;;;;;-0.82;95.59;100076.94;5033688;28;19960;-64
2022/01/12 13:47:44;;;;;;;;;;;;;;;-0.85;95.71;100067.63;5034546;28;20015;-64
2022/01/12 13:50:10;;;;;;;;;;;;;;;-0.85;96.04;100059.94;5035091;28;19961;-64
2022/01/12 13:52:38;;;;;;;;;;;;;;;-0.84;94.97;100060.81;5034558;28;20013;-65
2022/01/12 13:55:11;;;;;;;;;;;;;;;-0.86;95.30;100034.47;5034318;28;19987;-65
2022/01/12 13:57:39;;;;;;;;;;;;;;;-0.90;96.02;100020.88;5016906;28;20323;-64
2022/01/12 14:00:09;;;;;;;;;;;;;;;-0.88;95.07;99997.00;5015927;28;19925;-65
2022/01/12 14:02:42;;;;;;;;;;;;;;;-0.89;95.25;99999.59;5019468;28;19921;-69
2022/01/12 14:05:17;;;;;;;;;;;;;;;-0.88;95.08;100002.09;5031735;28;19921;-68
2022/01/12 14:07:58;;;;;;;;;;;;;;;-0.84;94.97;99981.63;5034555;28;19928;-72
2022/01/12 14:10:26;;;;;;;;;;;;;;;-0.82;94.95;99973.06;5034973;28;20367;-65
2022/01/12 14:12:55;;;;;;;;;;;;;;;-0.82;94.85;99969.66;5033645;28;19935;-65
2022/01/12 14:15:23;;;;;;;;;;;;;;;-0.80;94.75;99955.13;5034039;28;19967;-77
2022/01/12 14:17:51;;;;;;;;;;;;;;;-0.81;95.45;99938.16;5034979;28;20271;-71
2022/01/12 14:20:22;;;;;;;;;;;;;;;-0.83;94.74;99925.41;5028970;28;20029;-75